sensor_id;sensor_type;location;lat;lon;timestamp;pressure;altitude;pressure_sealevel;temperature;humidity
56668;BME280;42542;48.360;10.958;2022-10-16T00:01:14;96144.69;;;12.69;100.00
56668;BME280;42542;48.360;10.958;2022-10-16T00:04:16;96147.38;;;12.69;100.00
56668;BME280;42542;48.360;10.958;2022-10-16T00:07:17;96150.25;;;12.68;100.00
56668;BME280;42542;48.360;10.958;2022-10-16T00:10:19;96144.06;;;12.67;100.00
56668;BME280;42542;48.360;10.958;2022-10-16T00:13:20;96145.06;;;12.66;100.00
56668;BME280;42542;48.360;10.958;2022-10-16T00:16:22;96147.09;;;12.64;100.00
56668;BME280;42542;48.360;10.958;2022-10-16T00:19:24;96149.94;;;12.63;100.00
56668;BME280;42542;48.360;10.958;2022-10-16T00:22:25;96143.72;;;12.62;100.00
56668;BME280;42542;48.360;10.958;2022-10-16T00:25:28;96138.53;;;12.61;100.00
56668;BME280;42542;48.360;10.958;2022-10-16T00:28:30;96143.25;;;12.59;100.00
56668;BME280;42542;48.360;10.958;2022-10-16T00:31:32;96143.44;;;12.57;100.00
56668;BME280;42542;48.360;10.958;2022-10-16T00:34:34;96151.66;;;12.56;100.00
56668;BME280;42542;48.360;10.958;2022-10-16T00:37:35;96147.28;;;12.55;100.00
56668;BME280;42542;48.360;10.958;2022-10-16T00:40:37;96142.94;;;12.53;100.00
56668;BME280;42542;48.360;10.958;2022-10-16T00:46:44;96151.81;;;12.54;100.00
56668;BME280;42542;48.360;10.958;2022-10-16T00:49:46;96151.19;;;12.52;100.00
56668;BME280;42542;48.360;10.958;2022-10-16T00:52:49;96161.06;;;12.51;100.00
56668;BME280;42542;48.360;10.958;2022-10-16T00:55:51;96163.91;;;12.50;100.00
56668;BME280;42542;48.360;10.958;2022-10-16T00:58:53;96154.56;;;12.46;100.00
56668;BME280;42542;48.360;10.958;2022-10-16T01:01:55;96171.97;;;12.50;100.00
56668;BME280;42542;48.360;10.958;2022-10-16T01:04:57;96169.28;;;12.50;100.00
56668;BME280;42542;48.360;10.958;2022-10-16T01:08:13;96164.09;;;12.48;100.00
56668;BME280;42542;48.360;10.958;2022-10-16T01:11:25;96162.25;;;12.49;100.00
56668;BME280;42542;48.360;10.958;2022-10-16T01:14:40;96153.34;;;12.48;100.00
56668;BME280;42542;48.360;10.958;2022-10-16T01:18:11;96154.19;;;12.49;100.00
56668;BME280;42542;48.360;10.958;2022-10-16T01:21:26;96156.72;;;12.50;100.00
56668;BME280;42542;48.360;10.958;2022-10-16T01:24:41;96152.34;;;12.49;100.00
56668;BME280;42542;48.360;10.958;2022-10-16T01:27:46;96148.84;;;12.49;100.00
56668;BME280;42542;48.360;10.958;2022-10-16T01:30:51;96140.78;;;12.49;100.00
56668;BME280;42542;48.360;10.958;2022-10-16T01:34:12;96129.22;;;12.48;100.00
56668;BME280;42542;48.360;10.958;2022-10-16T01:37:20;96140.13;;;12.47;100.00
56668;BME280;42542;48.360;10.958;2022-10-16T01:40:26;96137.28;;;12.48;100.00
56668;BME280;42542;48.360;10.958;2022-10-16T01:43:33;96140.31;;;12.45;100.00
56668;BME280;42542;48.360;10.958;2022-10-16T01:46:39;96152.69;;;12.46;100.00
56668;BME280;42542;48.360;10.958;2022-10-16T01:49:42;96144.00;;;12.44;100.00
56668;BME280;42542;48.360;10.958;2022-10-16T01:52:48;96146.56;;;12.38;100.00
56668;BME280;42542;48.360;10.958;2022-10-16T01:55:52;96145.34;;;12.40;100.00
56668;BME280;42542;48.360;10.958;2022-10-16T01:59:06;96144.72;;;12.38;100.00
56668;BME280;42542;48.360;10.958;2022-10-16T02:02:09;96149.56;;;12.35;100.00
56668;BME280;42542;48.360;10.958;2022-10-16T02:05:27;96152.13;;;12.28;100.00
56668;BME280;42542;48.360;10.958;2022-10-16T02:08:30;96147.94;;;12.26;100.00
56668;BME280;42542;48.360;10.958;2022-10-16T02:11:32;96157.81;;;12.25;100.00
56668;BME280;42542;48.360;10.958;2022-10-16T02:14:34;96154.81;;;12.20;100.00
56668;BME280;42542;48.360;10.958;2022-10-16T02:17:38;96162.88;;;12.20;100.00
56668;BME280;42542;48.360;10.958;2022-10-16T02:20:55;96158.50;;;12.19;100.00
56668;BME280;42542;48.360;10.958;2022-10-16T02:24:08;96156.00;;;12.18;100.00
56668;BME280;42542;48.360;10.958;2022-10-16T02:27:31;96147.97;;;12.18;100.00
56668;BME280;42542;48.360;10.958;2022-10-16T02:30:48;96147.16;;;12.17;100.00
56668;BME280;42542;48.360;10.958;2022-10-16T02:33:50;96133.94;;;12.07;100.00
56668;BME280;42542;48.360;10.958;2022-10-16T02:36:55;96149.84;;;12.17;100.00
56668;BME280;42542;48.360;10.958;2022-10-16T02:39:58;96152.50;;;12.17;100.00
56668;BME280;42542;48.360;10.958;2022-10-16T02:43:00;96151.69;;;12.17;100.00
56668;BME280;42542;48.360;10.958;2022-10-16T02:46:04;96152.69;;;12.16;100.00
56668;BME280;42542;48.360;10.958;2022-10-16T02:49:05;96162.41;;;12.17;100.00
56668;BME280;42542;48.360;10.958;2022-10-16T02:52:07;96165.25;;;12.15;100.00
56668;BME280;42542;48.360;10.958;2022-10-16T02:55:09;96171.44;;;12.16;100.00
56668;BME280;42542;48.360;10.958;2022-10-16T02:58:10;96166.91;;;12.16;100.00
56668;BME280;42542;48.360;10.958;2022-10-16T03:01:12;96164.03;;;12.18;100.00
56668;BME280;42542;48.360;10.958;2022-10-16T03:04:15;96164.88;;;12.18;100.00
56668;BME280;42542;48.360;10.958;2022-10-16T03:07:17;96165.53;;;12.20;100.00
56668;BME280;42542;48.360;10.958;2022-10-16T03:10:18;96161.03;;;12.21;100.00
56668;BME280;42542;48.360;10.958;2022-10-16T03:13:20;96165.38;;;12.22;100.00
56668;BME280;42542;48.360;10.958;2022-10-16T03:16:22;96169.72;;;12.23;100.00
56668;BME280;42542;48.360;10.958;2022-10-16T03:19:24;96173.06;;;12.25;100.00
56668;BME280;42542;48.360;10.958;2022-10-16T03:22:25;96174.09;;;12.24;100.00
56668;BME280;42542;48.360;10.958;2022-10-16T03:25:27;96173.91;;;12.25;100.00
56668;BME280;42542;48.360;10.958;2022-10-16T03:28:28;96174.94;;;12.24;100.00
56668;BME280;42542;48.360;10.958;2022-10-16T03:31:30;96178.25;;;12.26;100.00
56668;BME280;42542;48.360;10.958;2022-10-16T03:34:32;96178.91;;;12.28;100.00
56668;BME280;42542;48.360;10.958;2022-10-16T03:37:33;96182.59;;;12.27;100.00
56668;BME280;42542;48.360;10.958;2022-10-16T03:40:35;96177.06;;;12.29;100.00
56668;BME280;42542;48.360;10.958;2022-10-16T03:43:38;96182.44;;;12.29;100.00
56668;BME280;42542;48.360;10.958;2022-10-16T03:46:39;96178.91;;;12.28;100.00
56668;BME280;42542;48.360;10.958;2022-10-16T03:49:41;96172.56;;;12.29;100.00
56668;BME280;42542;48.360;10.958;2022-10-16T03:52:42;96166.53;;;12.27;100.00
56668;BME280;42542;48.360;10.958;2022-10-16T03:55:44;96170.03;;;12.28;100.00
56668;BME280;42542;48.360;10.958;2022-10-16T03:58:46;96173.41;;;12.30;100.00
56668;BME280;42542;48.360;10.958;2022-10-16T04:01:47;96170.53;;;12.31;100.00
56668;BME280;42542;48.360;10.958;2022-10-16T04:04:49;96152.66;;;12.24;100.00
56668;BME280;42542;48.360;10.958;2022-10-16T04:07:50;96171.19;;;12.33;100.00
56668;BME280;42542;48.360;10.958;2022-10-16T04:10:52;96175.53;;;12.34;100.00
56668;BME280;42542;48.360;10.958;2022-10-16T04:13:54;96178.06;;;12.36;100.00
56668;BME280;42542;48.360;10.958;2022-10-16T04:16:55;96184.25;;;12.36;100.00
56668;BME280;42542;48.360;10.958;2022-10-16T04:19:57;96187.78;;;12.37;100.00
56668;BME280;42542;48.360;10.958;2022-10-16T04:22:58;96187.78;;;12.37;100.00
56668;BME280;42542;48.360;10.958;2022-10-16T04:26:00;96185.09;;;12.37;100.00
56668;BME280;42542;48.360;10.958;2022-10-16T04:29:02;96185.94;;;12.37;100.00
56668;BME280;42542;48.360;10.958;2022-10-16T04:32:04;96183.09;;;12.39;100.00
56668;BME280;42542;48.360;10.958;2022-10-16T04:35:06;96175.03;;;12.39;100.00
56668;BME280;42542;48.360;10.958;2022-10-16T04:38:07;96170.69;;;12.38;100.00
56668;BME280;42542;48.360;10.958;2022-10-16T04:41:09;96169.84;;;12.37;100.00
56668;BME280;42542;48.360;10.958;2022-10-16T04:44:11;96172.34;;;12.39;100.00
56668;BME280;42542;48.360;10.958;2022-10-16T04:47:13;96177.72;;;12.39;100.00
56668;BME280;42542;48.360;10.958;2022-10-16T04:50:14;96177.06;;;12.37;100.00
56668;BME280;42542;48.360;10.958;2022-10-16T04:53:34;96176.38;;;12.35;100.00
56668;BME280;42542;48.360;10.958;2022-10-16T04:56:36;96182.75;;;12.34;100.00
56668;BME280;42542;48.360;10.958;2022-10-16T04:59:44;96190.47;;;12.29;100.00
56668;BME280;42542;48.360;10.958;2022-10-16T05:02:45;96192.50;;;12.27;100.00
56668;BME280;42542;48.360;10.958;2022-10-16T05:05:47;96188.50;;;12.23;100.00
56668;BME280;42542;48.360;10.958;2022-10-16T05:08:49;96188.00;;;12.19;100.00
56668;BME280;42542;48.360;10.958;2022-10-16T05:11:50;96182.00;;;12.17;100.00
56668;BME280;42542;48.360;10.958;2022-10-16T05:14:52;96184.50;;;12.10;100.00
56668;BME280;42542;48.360;10.958;2022-10-16T05:17:54;96171.63;;;12.06;100.00
56668;BME280;42542;48.360;10.958;2022-10-16T05:20:56;96178.16;;;12.03;100.00
56668;BME280;42542;48.360;10.958;2022-10-16T05:23:57;96184.88;;;11.99;100.00
56668;BME280;42542;48.360;10.958;2022-10-16T05:26:59;96189.72;;;11.96;100.00
56668;BME280;42542;48.360;10.958;2022-10-16T05:30:00;96191.91;;;11.92;100.00
56668;BME280;42542;48.360;10.958;2022-10-16T05:33:02;96196.78;;;11.89;100.00
56668;BME280;42542;48.360;10.958;2022-10-16T05:36:06;96187.41;;;11.85;100.00
56668;BME280;42542;48.360;10.958;2022-10-16T05:39:08;96199.13;;;11.84;100.00
56668;BME280;42542;48.360;10.958;2022-10-16T05:42:10;96212.03;;;11.80;100.00
56668;BME280;42542;48.360;10.958;2022-10-16T05:45:11;96205.84;;;11.80;100.00
56668;BME280;42542;48.360;10.958;2022-10-16T05:48:13;96208.84;;;11.77;100.00
56668;BME280;42542;48.360;10.958;2022-10-16T05:51:15;96221.41;;;11.76;100.00
56668;BME280;42542;48.360;10.958;2022-10-16T05:54:16;96223.44;;;11.74;100.00
56668;BME280;42542;48.360;10.958;2022-10-16T05:57:18;96220.03;;;11.72;100.00
56668;BME280;42542;48.360;10.958;2022-10-16T06:00:20;96221.03;;;11.71;100.00
56668;BME280;42542;48.360;10.958;2022-10-16T06:03:22;96230.09;;;11.70;100.00
56668;BME280;42542;48.360;10.958;2022-10-16T06:06:26;96236.44;;;11.69;100.00
56668;BME280;42542;48.360;10.958;2022-10-16T06:09:28;96228.56;;;11.67;100.00
56668;BME280;42542;48.360;10.958;2022-10-16T06:12:30;96231.25;;;11.67;100.00
56668;BME280;42542;48.360;10.958;2022-10-16T06:15:31;96229.59;;;11.66;100.00
56668;BME280;42542;48.360;10.958;2022-10-16T06:18:33;96232.09;;;11.68;100.00
56668;BME280;42542;48.360;10.958;2022-10-16T06:21:35;96240.63;;;11.71;100.00
56668;BME280;42542;48.360;10.958;2022-10-16T06:24:36;96235.28;;;11.71;100.00
56668;BME280;42542;48.360;10.958;2022-10-16T06:27:41;96245.00;;;11.72;100.00
56668;BME280;42542;48.360;10.958;2022-10-16T06:30:42;96240.16;;;11.76;100.00
56668;BME280;42542;48.360;10.958;2022-10-16T06:33:45;96256.72;;;11.80;100.00
56668;BME280;42542;48.360;10.958;2022-10-16T06:36:49;96256.22;;;11.84;100.00
56668;BME280;42542;48.360;10.958;2022-10-16T06:39:51;96252.22;;;11.88;100.00
56668;BME280;42542;48.360;10.958;2022-10-16T06:42:55;96262.41;;;11.93;100.00
56668;BME280;42542;48.360;10.958;2022-10-16T06:45:57;96253.53;;;11.92;100.00
56668;BME280;42542;48.360;10.958;2022-10-16T06:49:00;96259.56;;;12.02;100.00
56668;BME280;42542;48.360;10.958;2022-10-16T06:52:01;96270.44;;;12.09;100.00
56668;BME280;42542;48.360;10.958;2022-10-16T06:55:03;96255.53;;;12.06;100.00
56668;BME280;42542;48.360;10.958;2022-10-16T06:58:05;96268.53;;;12.18;100.00
56668;BME280;42542;48.360;10.958;2022-10-16T07:01:07;96276.09;;;12.22;100.00
56668;BME280;42542;48.360;10.958;2022-10-16T07:04:09;96278.59;;;12.32;100.00
56668;BME280;42542;48.360;10.958;2022-10-16T07:07:10;96286.78;;;12.38;100.00
56668;BME280;42542;48.360;10.958;2022-10-16T07:10:12;96287.09;;;12.43;100.00
56668;BME280;42542;48.360;10.958;2022-10-16T07:13:13;96295.47;;;12.48;100.00
56668;BME280;42542;48.360;10.958;2022-10-16T07:16:20;96296.97;;;12.51;100.00
56668;BME280;42542;48.360;10.958;2022-10-16T07:19:22;96298.13;;;12.57;100.00
56668;BME280;42542;48.360;10.958;2022-10-16T07:22:24;96292.75;;;12.57;100.00
56668;BME280;42542;48.360;10.958;2022-10-16T07:25:26;96311.19;;;12.68;100.00
56668;BME280;42542;48.360;10.958;2022-10-16T07:28:28;96315.84;;;12.74;100.00
56668;BME280;42542;48.360;10.958;2022-10-16T07:31:30;96314.97;;;12.81;100.00
56668;BME280;42542;48.360;10.958;2022-10-16T07:34:31;96314.28;;;12.87;100.00
56668;BME280;42542;48.360;10.958;2022-10-16T07:37:33;96316.25;;;12.94;100.00
56668;BME280;42542;48.360;10.958;2022-10-16T07:40:35;96318.38;;;13.06;100.00
56668;BME280;42542;48.360;10.958;2022-10-16T07:43:37;96327.56;;;13.20;100.00
56668;BME280;42542;48.360;10.958;2022-10-16T07:46:39;96326.53;;;13.29;100.00
56668;BME280;42542;48.360;10.958;2022-10-16T07:49:40;96318.59;;;13.36;100.00
56668;BME280;42542;48.360;10.958;2022-10-16T07:52:42;96323.09;;;13.43;100.00
56668;BME280;42542;48.360;10.958;2022-10-16T07:55:43;96332.28;;;13.49;100.00
56668;BME280;42542;48.360;10.958;2022-10-16T07:58:45;96337.59;;;13.57;100.00
56668;BME280;42542;48.360;10.958;2022-10-16T08:01:48;96337.09;;;13.61;100.00
56668;BME280;42542;48.360;10.958;2022-10-16T08:04:50;96343.88;;;13.72;100.00
56668;BME280;42542;48.360;10.958;2022-10-16T08:07:52;96344.84;;;13.79;100.00
56668;BME280;42542;48.360;10.958;2022-10-16T08:10:57;96346.47;;;13.88;100.00
56668;BME280;42542;48.360;10.958;2022-10-16T08:14:00;96352.06;;;14.01;100.00
56668;BME280;42542;48.360;10.958;2022-10-16T08:17:02;96347.94;;;14.14;100.00
56668;BME280;42542;48.360;10.958;2022-10-16T08:20:05;96350.03;;;14.26;100.00
56668;BME280;42542;48.360;10.958;2022-10-16T08:23:08;96344.34;;;14.44;100.00
56668;BME280;42542;48.360;10.958;2022-10-16T08:26:11;96344.19;;;14.60;100.00
56668;BME280;42542;48.360;10.958;2022-10-16T08:29:13;96332.50;;;14.68;100.00
56668;BME280;42542;48.360;10.958;2022-10-16T08:32:16;96347.09;;;14.88;100.00
56668;BME280;42542;48.360;10.958;2022-10-16T08:35:17;96350.34;;;14.98;100.00
56668;BME280;42542;48.360;10.958;2022-10-16T08:38:19;96345.88;;;15.05;100.00
56668;BME280;42542;48.360;10.958;2022-10-16T08:41:41;96345.75;;;15.13;100.00
56668;BME280;42542;48.360;10.958;2022-10-16T08:48:13;96356.81;;;15.33;100.00
56668;BME280;42542;48.360;10.958;2022-10-16T08:51:24;96359.84;;;15.45;100.00
56668;BME280;42542;48.360;10.958;2022-10-16T08:54:45;96363.38;;;15.60;100.00
56668;BME280;42542;48.360;10.958;2022-10-16T08:57:49;96357.13;;;15.74;100.00
56668;BME280;42542;48.360;10.958;2022-10-16T09:00:55;96365.34;;;15.87;100.00
56668;BME280;42542;48.360;10.958;2022-10-16T09:21:25;96379.31;;;16.83;88.19
56668;BME280;42542;48.360;10.958;2022-10-16T09:24:29;96386.28;;;16.98;86.39
56668;BME280;42542;48.360;10.958;2022-10-16T09:27:31;96373.66;;;17.05;84.85
56668;BME280;42542;48.360;10.958;2022-10-16T09:30:37;96382.72;;;17.26;83.99
56668;BME280;42542;48.360;10.958;2022-10-16T09:33:41;96385.09;;;17.42;84.56
56668;BME280;42542;48.360;10.958;2022-10-16T09:36:44;96390.34;;;17.56;80.46
56668;BME280;42542;48.360;10.958;2022-10-16T09:39:47;96390.84;;;17.73;79.65
56668;BME280;42542;48.360;10.958;2022-10-16T09:42:49;96400.06;;;17.85;79.89
56668;BME280;42542;48.360;10.958;2022-10-16T09:46:01;96405.91;;;17.95;78.64
56668;BME280;42542;48.360;10.958;2022-10-16T09:49:16;96406.75;;;18.03;77.80
56668;BME280;42542;48.360;10.958;2022-10-16T09:52:21;96407.81;;;18.08;76.13
56668;BME280;42542;48.360;10.958;2022-10-16T09:55:22;96399.75;;;18.15;76.10
56668;BME280;42542;48.360;10.958;2022-10-16T09:58:24;96396.00;;;18.22;77.89
56668;BME280;42542;48.360;10.958;2022-10-16T10:04:49;96405.78;;;18.30;77.27
56668;BME280;42542;48.360;10.958;2022-10-16T10:07:57;96411.00;;;18.38;77.14
56668;BME280;42542;48.360;10.958;2022-10-16T10:10:59;96399.16;;;18.46;77.13
56668;BME280;42542;48.360;10.958;2022-10-16T10:14:27;96412.28;;;18.55;77.12
56668;BME280;42542;48.360;10.958;2022-10-16T10:17:27;96409.63;;;18.68;77.70
56668;BME280;42542;48.360;10.958;2022-10-16T10:20:36;96400.06;;;18.79;77.59
56668;BME280;42542;48.360;10.958;2022-10-16T10:23:39;96402.75;;;18.92;77.87
56668;BME280;42542;48.360;10.958;2022-10-16T10:26:51;96404.41;;;19.00;77.13
56668;BME280;42542;48.360;10.958;2022-10-16T10:33:28;96401.03;;;19.18;77.44
56668;BME280;42542;48.360;10.958;2022-10-16T10:36:37;96401.03;;;19.24;74.82
56668;BME280;42542;48.360;10.958;2022-10-16T10:39:44;96404.16;;;19.34;75.27
56668;BME280;42542;48.360;10.958;2022-10-16T10:46:02;96406.84;;;19.47;74.67
56668;BME280;42542;48.360;10.958;2022-10-16T10:49:19;96410.59;;;19.53;74.30
56668;BME280;42542;48.360;10.958;2022-10-16T10:52:53;96416.44;;;19.57;72.30
56668;BME280;42542;48.360;10.958;2022-10-16T10:59:37;96415.53;;;19.69;72.22
56668;BME280;42542;48.360;10.958;2022-10-16T11:02:50;96410.94;;;19.76;72.85
56668;BME280;42542;48.360;10.958;2022-10-16T11:06:00;96411.09;;;19.81;71.72
56668;BME280;42542;48.360;10.958;2022-10-16T11:09:28;96411.91;;;19.88;71.95
56668;BME280;42542;48.360;10.958;2022-10-16T11:12:39;96399.59;;;19.93;72.76
56668;BME280;42542;48.360;10.958;2022-10-16T11:15:42;96399.56;;;19.99;73.08
56668;BME280;42542;48.360;10.958;2022-10-16T11:22:12;96398.06;;;20.10;73.15
56668;BME280;42542;48.360;10.958;2022-10-16T11:25:26;96399.69;;;20.11;70.43
56668;BME280;42542;48.360;10.958;2022-10-16T11:28:37;96404.50;;;20.15;71.58
56668;BME280;42542;48.360;10.958;2022-10-16T11:31:47;96391.94;;;20.21;70.71
56668;BME280;42542;48.360;10.958;2022-10-16T11:34:56;96391.94;;;20.21;68.73
56668;BME280;42542;48.360;10.958;2022-10-16T11:38:00;96397.31;;;20.27;68.17
56668;BME280;42542;48.360;10.958;2022-10-16T11:41:37;96383.09;;;20.32;68.31
56668;BME280;42542;48.360;10.958;2022-10-16T11:51:41;96402.84;;;20.52;65.09
56668;BME280;42542;48.360;10.958;2022-10-16T11:55:04;96402.59;;;20.54;61.53
56668;BME280;42542;48.360;10.958;2022-10-16T11:58:27;96399.69;;;20.55;61.09
56668;BME280;42542;48.360;10.958;2022-10-16T12:01:40;96398.78;;;20.61;61.88
56668;BME280;42542;48.360;10.958;2022-10-16T12:04:49;96390.59;;;20.68;62.39
56668;BME280;42542;48.360;10.958;2022-10-16T12:08:06;96391.34;;;20.82;63.03
56668;BME280;42542;48.360;10.958;2022-10-16T12:11:24;96381.69;;;21.11;59.52
56668;BME280;42542;48.360;10.958;2022-10-16T12:17:38;96389.59;;;21.55;59.53
56668;BME280;42542;48.360;10.958;2022-10-16T12:20:39;96380.00;;;21.71;61.06
56668;BME280;42542;48.360;10.958;2022-10-16T12:23:52;96371.09;;;21.82;59.28
56668;BME280;42542;48.360;10.958;2022-10-16T12:26:54;96373.72;;;21.89;59.71
56668;BME280;42542;48.360;10.958;2022-10-16T12:30:02;96377.03;;;21.91;58.33
56668;BME280;42542;48.360;10.958;2022-10-16T12:33:15;96375.13;;;21.91;58.15
56668;BME280;42542;48.360;10.958;2022-10-16T12:36:30;96369.09;;;21.89;57.76
56668;BME280;42542;48.360;10.958;2022-10-16T12:39:32;96372.41;;;21.91;58.31
56668;BME280;42542;48.360;10.958;2022-10-16T12:42:34;96376.19;;;21.90;58.84
56668;BME280;42542;48.360;10.958;2022-10-16T12:45:36;96371.44;;;21.86;58.75
56668;BME280;42542;48.360;10.958;2022-10-16T12:48:39;96386.94;;;21.85;57.29
56668;BME280;42542;48.360;10.958;2022-10-16T12:51:56;96385.06;;;21.86;57.72
56668;BME280;42542;48.360;10.958;2022-10-16T12:54:58;96386.56;;;21.81;57.30
56668;BME280;42542;48.360;10.958;2022-10-16T12:58:17;96394.34;;;21.78;56.38
56668;BME280;42542;48.360;10.958;2022-10-16T13:01:33;96392.78;;;21.70;55.42
56668;BME280;42542;48.360;10.958;2022-10-16T13:04:50;96390.03;;;21.70;56.64
56668;BME280;42542;48.360;10.958;2022-10-16T13:11:43;96390.59;;;21.61;54.29
56668;BME280;42542;48.360;10.958;2022-10-16T13:25:34;96406.59;;;21.51;53.51
56668;BME280;42542;48.360;10.958;2022-10-16T13:28:40;96396.56;;;21.51;54.44
56668;BME280;42542;48.360;10.958;2022-10-16T13:31:43;96396.56;;;21.51;54.50
56668;BME280;42542;48.360;10.958;2022-10-16T13:34:47;96394.88;;;21.50;54.83
56668;BME280;42542;48.360;10.958;2022-10-16T13:37:50;96398.44;;;21.51;55.73
56668;BME280;42542;48.360;10.958;2022-10-16T13:40:53;96391.34;;;21.50;56.08
56668;BME280;42542;48.360;10.958;2022-10-16T13:43:56;96394.28;;;21.48;55.40
56668;BME280;42542;48.360;10.958;2022-10-16T13:46:59;96400.41;;;21.43;53.32
56668;BME280;42542;48.360;10.958;2022-10-16T13:50:05;96396.63;;;21.45;53.94
56668;BME280;42542;48.360;10.958;2022-10-16T13:53:13;96409.38;;;21.44;52.53
56668;BME280;42542;48.360;10.958;2022-10-16T13:56:18;96405.63;;;21.45;53.51
56668;BME280;42542;48.360;10.958;2022-10-16T13:59:35;96409.38;;;21.44;52.69
56668;BME280;42542;48.360;10.958;2022-10-16T14:02:39;96404.16;;;21.42;53.72
56668;BME280;42542;48.360;10.958;2022-10-16T14:05:50;96411.72;;;21.40;53.47
56668;BME280;42542;48.360;10.958;2022-10-16T14:09:01;96416.56;;;21.38;53.22
56668;BME280;42542;48.360;10.958;2022-10-16T14:12:08;96407.34;;;21.39;53.26
56668;BME280;42542;48.360;10.958;2022-10-16T14:15:18;96411.72;;;21.40;53.04
56668;BME280;42542;48.360;10.958;2022-10-16T14:18:23;96419.88;;;21.40;54.74
56668;BME280;42542;48.360;10.958;2022-10-16T14:21:26;96414.06;;;21.37;55.32
56668;BME280;42542;48.360;10.958;2022-10-16T14:24:33;96418.88;;;21.35;54.45
56668;BME280;42542;48.360;10.958;2022-10-16T14:27:36;96412.00;;;21.32;54.98
56668;BME280;42542;48.360;10.958;2022-10-16T14:30:50;96423.50;;;21.34;55.90
56668;BME280;42542;48.360;10.958;2022-10-16T14:33:52;96409.53;;;21.31;56.97
56668;BME280;42542;48.360;10.958;2022-10-16T14:36:55;96406.25;;;21.22;58.01
56668;BME280;42542;48.360;10.958;2022-10-16T14:39:57;96411.91;;;21.21;58.64
56668;BME280;42542;48.360;10.958;2022-10-16T14:43:00;96416.16;;;21.17;59.23
56668;BME280;42542;48.360;10.958;2022-10-16T14:46:13;96410.28;;;21.13;60.39
56668;BME280;42542;48.360;10.958;2022-10-16T14:49:19;96416.41;;;21.09;60.87
56668;BME280;42542;48.360;10.958;2022-10-16T14:52:21;96418.13;;;21.03;61.44
56668;BME280;42542;48.360;10.958;2022-10-16T14:55:23;96416.06;;;20.98;62.30
56668;BME280;42542;48.360;10.958;2022-10-16T14:58:26;96423.84;;;20.95;62.66
56668;BME280;42542;48.360;10.958;2022-10-16T15:01:27;96420.50;;;20.93;63.74
56668;BME280;42542;48.360;10.958;2022-10-16T15:04:29;96419.88;;;20.91;63.99
56668;BME280;42542;48.360;10.958;2022-10-16T15:07:30;96420.09;;;20.89;63.27
56668;BME280;42542;48.360;10.958;2022-10-16T15:10:37;96429.09;;;20.90;63.97
56668;BME280;42542;48.360;10.958;2022-10-16T15:13:39;96434.97;;;20.87;63.83
56668;BME280;42542;48.360;10.958;2022-10-16T15:16:41;96427.03;;;20.85;63.59
56668;BME280;42542;48.360;10.958;2022-10-16T15:19:43;96431.25;;;20.81;63.31
56668;BME280;42542;48.360;10.958;2022-10-16T15:22:45;96429.81;;;20.79;62.97
56668;BME280;42542;48.360;10.958;2022-10-16T15:25:51;96426.69;;;20.75;63.41
56668;BME280;42542;48.360;10.958;2022-10-16T15:28:54;96432.56;;;20.72;64.85
56668;BME280;42542;48.360;10.958;2022-10-16T15:31:56;96426.97;;;20.67;66.47
56668;BME280;42542;48.360;10.958;2022-10-16T15:34:57;96433.25;;;20.61;67.25
56668;BME280;42542;48.360;10.958;2022-10-16T15:37:59;96434.16;;;20.55;67.74
56668;BME280;42542;48.360;10.958;2022-10-16T15:41:01;96432.53;;;20.47;68.09
56668;BME280;42542;48.360;10.958;2022-10-16T15:44:03;96429.00;;;20.40;69.37
56668;BME280;42542;48.360;10.958;2022-10-16T15:47:04;96434.91;;;20.31;70.55
56668;BME280;42542;48.360;10.958;2022-10-16T15:50:06;96432.66;;;20.21;71.24
56668;BME280;42542;48.360;10.958;2022-10-16T15:53:08;96442.09;;;20.12;72.23
56668;BME280;42542;48.360;10.958;2022-10-16T15:56:10;96436.50;;;20.00;73.02
56668;BME280;42542;48.360;10.958;2022-10-16T15:59:12;96438.44;;;19.86;73.60
56668;BME280;42542;48.360;10.958;2022-10-16T16:02:14;96439.72;;;19.77;73.97
56668;BME280;42542;48.360;10.958;2022-10-16T16:05:16;96439.56;;;19.66;74.87
56668;BME280;42542;48.360;10.958;2022-10-16T16:08:17;96446.06;;;19.52;75.51
56668;BME280;42542;48.360;10.958;2022-10-16T16:11:20;96439.38;;;19.34;76.11
56668;BME280;42542;48.360;10.958;2022-10-16T16:14:21;96453.78;;;19.28;76.54
56668;BME280;42542;48.360;10.958;2022-10-16T16:17:23;96455.47;;;19.16;76.78
56668;BME280;42542;48.360;10.958;2022-10-16T16:20:25;96461.72;;;19.03;77.09
56668;BME280;42542;48.360;10.958;2022-10-16T16:23:27;96455.47;;;18.90;78.02
56668;BME280;42542;48.360;10.958;2022-10-16T16:26:29;96460.03;;;18.76;78.10
56668;BME280;42542;48.360;10.958;2022-10-16T16:29:37;96469.00;;;18.63;78.60
56668;BME280;42542;48.360;10.958;2022-10-16T16:32:41;96471.84;;;18.49;79.32
56668;BME280;42542;48.360;10.958;2022-10-16T16:35:43;96474.53;;;18.36;79.82
56668;BME280;42542;48.360;10.958;2022-10-16T16:38:45;96476.78;;;18.25;80.25
56668;BME280;42542;48.360;10.958;2022-10-16T16:41:47;96479.03;;;18.15;80.63
56668;BME280;42542;48.360;10.958;2022-10-16T16:44:49;96475.03;;;18.05;81.22
56668;BME280;42542;48.360;10.958;2022-10-16T16:47:51;96482.47;;;17.96;81.93
56668;BME280;42542;48.360;10.958;2022-10-16T16:50:52;96478.50;;;17.85;82.35
56668;BME280;42542;48.360;10.958;2022-10-16T16:53:54;96484.25;;;17.76;82.27
56668;BME280;42542;48.360;10.958;2022-10-16T16:56:56;96477.53;;;17.65;82.86
56668;BME280;42542;48.360;10.958;2022-10-16T16:59:57;96495.34;;;17.60;83.58
56668;BME280;42542;48.360;10.958;2022-10-16T17:02:59;96498.84;;;17.53;83.14
56668;BME280;42542;48.360;10.958;2022-10-16T17:06:03;96494.84;;;17.43;84.34